createdAt,value
2018-05-27T00:00:59.305Z,20.70
2018-05-27T00:03:26.772Z,20.40
2018-05-27T00:05:54.239Z,20.50
2018-05-27T00:08:21.693Z,20.60
2018-05-27T00:10:49.141Z,20.70
2018-05-27T00:13:16.601Z,20.40
2018-05-27T00:15:44.042Z,20.50
2018-05-27T00:18:11.498Z,20.40
2018-05-27T00:20:38.961Z,20.00
2018-05-27T00:23:06.417Z,19.80
2018-05-27T00:25:33.870Z,19.90
2018-05-27T00:28:01.335Z,19.70
2018-05-27T00:30:28.842Z,19.60
2018-05-27T00:32:56.306Z,19.60
2018-05-27T00:35:23.756Z,19.60
2018-05-27T00:37:51.202Z,19.70
2018-05-27T00:40:18.659Z,19.80
2018-05-27T00:42:46.098Z,20.00
2018-05-27T00:45:13.561Z,20.10
2018-05-27T00:47:40.989Z,20.00
2018-05-27T00:50:08.448Z,19.80
2018-05-27T00:52:35.907Z,19.90
2018-05-27T00:55:03.372Z,20.00
2018-05-27T00:57:30.829Z,20.00
2018-05-27T00:59:58.281Z,19.90
2018-05-27T01:02:25.733Z,19.90
2018-05-27T01:04:53.205Z,20.10
2018-05-27T01:07:20.645Z,20.00
2018-05-27T01:09:48.118Z,20.00
2018-05-27T01:12:15.564Z,19.70
2018-05-27T01:14:43.025Z,20.00
2018-05-27T01:17:10.475Z,19.90
2018-05-27T01:19:38.000Z,20.00
2018-05-27T01:22:05.446Z,20.10
2018-05-27T01:24:32.924Z,20.10
2018-05-27T01:27:00.386Z,19.90
2018-05-27T01:29:27.860Z,19.80
2018-05-27T01:31:55.314Z,19.80
2018-05-27T01:34:22.777Z,19.90
2018-05-27T01:36:50.253Z,19.80
2018-05-27T01:39:17.715Z,19.70
2018-05-27T01:41:45.175Z,19.90
2018-05-27T01:44:12.625Z,20.00
2018-05-27T01:46:40.084Z,20.00
2018-05-27T01:49:07.546Z,19.70
2018-05-27T01:51:34.996Z,19.60
2018-05-27T01:54:02.439Z,19.50
2018-05-27T01:56:29.947Z,19.50
2018-05-27T01:58:57.412Z,19.80
2018-05-27T02:01:25.646Z,19.60
2018-05-27T02:03:53.107Z,19.60
2018-05-27T02:06:20.571Z,19.30
2018-05-27T02:08:48.032Z,19.20
2018-05-27T02:11:15.574Z,19.20
2018-05-27T02:13:43.033Z,19.40
2018-05-27T02:16:10.518Z,19.50
2018-05-27T02:18:37.985Z,19.60
2018-05-27T02:21:05.451Z,19.50
2018-05-27T02:23:32.899Z,19.50
2018-05-27T02:26:00.383Z,19.40
2018-05-27T02:28:27.851Z,19.40
2018-05-27T02:30:55.322Z,19.40
2018-05-27T02:33:22.761Z,19.30
2018-05-27T02:35:50.221Z,19.30
2018-05-27T02:38:17.681Z,19.10
2018-05-27T02:40:45.131Z,19.00
2018-05-27T02:43:12.584Z,18.90
2018-05-27T02:45:40.072Z,18.80
2018-05-27T02:48:07.524Z,18.80
2018-05-27T02:50:35.002Z,18.80
2018-05-27T02:53:02.468Z,18.80
2018-05-27T02:55:29.936Z,18.80
2018-05-27T02:57:57.426Z,18.80
2018-05-27T03:00:25.658Z,19.00
2018-05-27T03:02:53.119Z,19.00
2018-05-27T03:05:20.574Z,18.80
2018-05-27T03:07:48.043Z,18.70
2018-05-27T03:10:15.493Z,18.60
2018-05-27T03:12:42.954Z,18.50
2018-05-27T03:15:10.405Z,18.40
2018-05-27T03:17:37.869Z,18.40
2018-05-27T03:20:05.329Z,18.40
2018-05-27T03:22:32.791Z,18.30
2018-05-27T03:25:00.239Z,18.30
2018-05-27T03:27:28.601Z,18.20
2018-05-27T03:29:56.072Z,18.20
2018-05-27T03:32:24.292Z,18.10
2018-05-27T03:34:51.743Z,18.10
2018-05-27T03:37:19.219Z,18.10
2018-05-27T03:39:46.680Z,17.90
2018-05-27T03:42:14.154Z,18.00
2018-05-27T03:44:41.615Z,17.90
2018-05-27T03:47:09.094Z,17.90
2018-05-27T03:49:36.556Z,17.70
2018-05-27T03:52:04.018Z,17.70
2018-05-27T03:54:31.474Z,17.70
2018-05-27T03:56:58.958Z,17.60
2018-05-27T03:59:26.423Z,17.70
2018-05-27T04:01:53.888Z,17.60
2018-05-27T04:07:51.380Z,17.60
2018-05-27T04:10:18.842Z,17.60
2018-05-27T04:12:46.336Z,17.80
2018-05-27T04:15:13.955Z,17.70
2018-05-27T04:17:42.212Z,17.70
2018-05-27T04:20:09.685Z,17.70
2018-05-27T04:22:37.928Z,18.10
2018-05-27T04:25:05.407Z,18.10
2018-05-27T04:27:32.876Z,18.20
2018-05-27T04:30:00.339Z,18.20
2018-05-27T04:32:27.810Z,18.20
2018-05-27T04:34:55.257Z,18.10
2018-05-27T04:37:22.706Z,17.90
2018-05-27T04:39:50.176Z,17.80
2018-05-27T04:42:17.635Z,18.00
2018-05-27T04:44:45.101Z,18.00
2018-05-27T04:47:12.552Z,18.10
2018-05-27T04:49:40.026Z,18.20
2018-05-27T04:52:07.485Z,18.40
2018-05-27T04:54:34.970Z,18.30
2018-05-27T04:57:03.214Z,18.00
2018-05-27T04:59:30.695Z,18.00
2018-05-27T05:01:58.171Z,18.20
2018-05-27T05:04:25.626Z,18.30
2018-05-27T05:06:53.144Z,18.40
2018-05-27T05:09:20.604Z,18.50
2018-05-27T05:11:48.067Z,18.50
2018-05-27T05:14:15.538Z,18.50
2018-05-27T05:16:43.039Z,18.50
2018-05-27T05:19:10.503Z,18.60
2018-05-27T05:21:37.959Z,18.50
2018-05-27T05:24:06.270Z,18.60
2018-05-27T05:26:33.808Z,18.80
2018-05-27T05:29:01.300Z,18.90
2018-05-27T05:31:29.562Z,19.20
2018-05-27T05:33:57.028Z,19.20
2018-05-27T05:36:24.560Z,19.10
2018-05-27T05:38:52.760Z,19.30
2018-05-27T05:41:20.232Z,19.20
2018-05-27T05:43:47.706Z,19.30
2018-05-27T05:46:15.172Z,19.30
2018-05-27T05:48:43.409Z,19.40
2018-05-27T05:51:10.874Z,19.40
2018-05-27T05:53:38.333Z,19.50
2018-05-27T05:56:05.824Z,19.60
2018-05-27T05:58:33.279Z,19.50
2018-05-27T06:01:00.756Z,19.60
2018-05-27T06:03:28.991Z,19.60
2018-05-27T06:05:56.468Z,19.60
2018-05-27T06:08:23.962Z,19.70
2018-05-27T06:10:52.201Z,19.80
2018-05-27T06:13:19.659Z,19.80
2018-05-27T06:15:47.152Z,19.80
2018-05-27T06:18:14.615Z,19.90
2018-05-27T06:20:42.092Z,20.00
2018-05-27T06:23:10.314Z,20.20
2018-05-27T06:25:37.796Z,20.10
2018-05-27T06:28:06.243Z,20.20
2018-05-27T06:30:34.527Z,20.30
2018-05-27T06:33:01.989Z,20.30
2018-05-27T06:35:29.861Z,20.40
2018-05-27T06:37:57.333Z,20.50
2018-05-27T06:40:25.577Z,20.50
2018-05-27T06:42:53.039Z,20.40
2018-05-27T06:45:20.515Z,20.50
2018-05-27T06:47:48.760Z,20.60
2018-05-27T06:50:16.211Z,20.60
2018-05-27T06:52:43.670Z,20.60
2018-05-27T06:55:11.147Z,20.70
2018-05-27T06:57:38.609Z,20.60
2018-05-27T07:00:06.083Z,20.70
2018-05-27T07:02:33.567Z,20.80
2018-05-27T07:05:01.800Z,20.90
2018-05-27T07:07:29.272Z,20.90
2018-05-27T07:09:56.735Z,21.00
2018-05-27T07:12:24.216Z,21.10
2018-05-27T07:14:51.681Z,21.10
2018-05-27T07:17:19.148Z,21.20
2018-05-27T07:19:47.382Z,21.30
2018-05-27T07:22:14.860Z,21.20
2018-05-27T07:24:42.320Z,21.30
2018-05-27T07:27:09.792Z,21.30
2018-05-27T07:29:37.254Z,21.40
2018-05-27T07:32:04.717Z,21.40
2018-05-27T07:34:32.206Z,21.40
2018-05-27T07:36:59.629Z,21.40
2018-05-27T07:39:27.090Z,21.50
2018-05-27T07:41:54.565Z,21.50
2018-05-27T07:44:22.016Z,21.50
2018-05-27T07:46:49.479Z,21.50
2018-05-27T07:49:16.949Z,21.70
2018-05-27T07:51:44.426Z,21.80
2018-05-27T07:54:11.900Z,21.90
2018-05-27T07:56:39.376Z,22.00
2018-05-27T07:59:07.621Z,22.10
2018-05-27T08:01:35.100Z,22.10
2018-05-27T08:04:02.541Z,22.10
2018-05-27T08:06:30.015Z,22.00
2018-05-27T08:08:57.493Z,22.10
2018-05-27T08:11:24.971Z,22.20
2018-05-27T08:13:52.424Z,22.30
2018-05-27T08:16:20.649Z,22.20
2018-05-27T08:18:48.127Z,22.20
2018-05-27T08:21:15.597Z,22.30
2018-05-27T08:23:43.063Z,22.40
2018-05-27T08:26:10.516Z,22.50
2018-05-27T08:28:37.978Z,22.50
2018-05-27T08:33:40.072Z,22.80
2018-05-27T08:36:07.531Z,22.80
2018-05-27T08:38:35.003Z,22.90
2018-05-27T08:41:02.464Z,22.90
2018-05-27T08:43:29.956Z,22.90
2018-05-27T08:45:57.467Z,23.00
2018-05-27T08:48:24.935Z,23.10
2018-05-27T08:50:52.408Z,23.30
2018-05-27T08:53:19.879Z,23.30
2018-05-27T08:55:47.349Z,23.30
2018-05-27T08:58:14.837Z,23.40
2018-05-27T09:00:43.048Z,23.70
2018-05-27T09:03:11.287Z,23.80
2018-05-27T09:05:39.511Z,23.80
2018-05-27T09:08:06.986Z,23.80
2018-05-27T09:10:34.451Z,24.00
2018-05-27T09:13:01.925Z,24.00
2018-05-27T09:15:29.392Z,24.20
2018-05-27T09:17:56.868Z,24.10
2018-05-27T09:20:24.343Z,24.30
2018-05-27T09:22:51.809Z,24.50
2018-05-27T09:25:20.057Z,24.50
2018-05-27T09:27:47.509Z,24.50
2018-05-27T09:30:14.987Z,24.60
2018-05-27T09:32:42.442Z,24.70
2018-05-27T09:35:09.903Z,24.90
2018-05-27T09:37:37.373Z,24.70
2018-05-27T09:40:04.841Z,24.80
2018-05-27T09:42:32.301Z,25.10
2018-05-27T09:44:59.781Z,25.10
2018-05-27T09:47:27.258Z,25.30
2018-05-27T09:49:55.494Z,25.40
2018-05-27T09:52:22.977Z,25.40
2018-05-27T09:54:50.445Z,25.50
2018-05-27T09:57:17.898Z,25.50
2018-05-27T09:59:45.439Z,25.60
2018-05-27T10:02:12.910Z,25.70
2018-05-27T10:04:40.382Z,25.90
2018-05-27T10:07:07.836Z,26.10
2018-05-27T10:09:35.662Z,26.30
2018-05-27T10:12:03.121Z,25.90
2018-05-27T10:14:31.364Z,25.80
2018-05-27T10:16:58.812Z,25.70
2018-05-27T10:19:26.296Z,26.20
2018-05-27T10:21:53.749Z,26.40
2018-05-27T10:24:21.202Z,26.60
2018-05-27T10:26:48.682Z,26.80
2018-05-27T10:29:16.149Z,26.70
2018-05-27T10:31:43.636Z,26.80
2018-05-27T10:34:11.828Z,26.50
2018-05-27T10:36:39.294Z,26.50
2018-05-27T10:39:07.742Z,26.20
2018-05-27T10:41:35.199Z,26.40
2018-05-27T10:44:02.663Z,26.70
2018-05-27T10:46:30.128Z,27.00
2018-05-27T10:48:57.583Z,26.20
2018-05-27T10:51:25.047Z,26.20
2018-05-27T10:53:52.491Z,26.60
2018-05-27T10:56:19.951Z,26.40
2018-05-27T10:58:47.412Z,26.70
2018-05-27T11:01:14.895Z,27.00
2018-05-27T11:03:42.338Z,27.20
2018-05-27T11:06:09.799Z,27.00
2018-05-27T11:08:37.257Z,27.40
2018-05-27T11:11:04.733Z,27.40
2018-05-27T11:13:32.185Z,27.30
2018-05-27T11:15:59.733Z,27.00
2018-05-27T11:18:27.236Z,27.40
2018-05-27T11:20:54.719Z,27.90
2018-05-27T11:23:22.181Z,28.20
2018-05-27T11:25:50.429Z,28.40
2018-05-27T11:28:17.879Z,28.40
2018-05-27T11:30:45.340Z,28.60
2018-05-27T11:33:12.834Z,28.70
2018-05-27T11:35:40.292Z,28.60
2018-05-27T11:38:07.752Z,28.60
2018-05-27T11:40:35.192Z,27.80
2018-05-27T11:43:02.681Z,28.50
2018-05-27T11:45:30.131Z,28.30
2018-05-27T11:47:57.594Z,27.90
2018-05-27T11:50:26.436Z,28.10
2018-05-27T11:52:53.917Z,27.90
2018-05-27T11:55:21.418Z,28.00
2018-05-27T11:57:48.866Z,28.70
2018-05-27T12:00:16.338Z,28.50
2018-05-27T12:02:43.797Z,28.40
2018-05-27T12:05:11.280Z,28.70
2018-05-27T12:07:38.749Z,28.20
2018-05-27T12:10:06.193Z,28.10
2018-05-27T12:12:33.641Z,28.50
2018-05-27T12:15:01.105Z,28.40
2018-05-27T12:17:28.554Z,28.70
2018-05-27T12:19:55.989Z,28.60
2018-05-27T12:22:23.436Z,28.10
2018-05-27T12:24:51.674Z,29.20
2018-05-27T12:27:19.147Z,29.30
2018-05-27T12:29:46.668Z,29.80
2018-05-27T12:32:14.078Z,30.20
2018-05-27T12:34:41.530Z,29.60
2018-05-27T12:37:08.985Z,29.10
2018-05-27T12:39:36.432Z,28.70
2018-05-27T12:42:03.891Z,29.20
2018-05-27T12:44:31.372Z,29.20
2018-05-27T12:46:58.829Z,28.80
2018-05-27T12:49:26.281Z,28.70
2018-05-27T12:51:53.737Z,29.10
2018-05-27T12:54:21.212Z,29.40
2018-05-27T12:56:48.681Z,29.00
2018-05-27T12:59:16.143Z,29.90
2018-05-27T13:01:44.587Z,29.70
2018-05-27T13:04:12.056Z,29.50
2018-05-27T13:06:39.513Z,29.40
2018-05-27T13:09:06.979Z,29.80
2018-05-27T13:11:34.424Z,30.10
2018-05-27T13:14:02.658Z,30.50
2018-05-27T13:16:30.159Z,30.40
2018-05-27T13:18:57.575Z,30.40
2018-05-27T13:21:25.998Z,29.70
2018-05-27T13:23:54.239Z,29.10
2018-05-27T13:26:21.691Z,29.10
2018-05-27T13:28:49.152Z,29.00
2018-05-27T13:31:16.835Z,29.30
2018-05-27T13:33:44.304Z,29.20
2018-05-27T13:36:12.295Z,29.30
2018-05-27T13:38:39.819Z,29.50
2018-05-27T13:41:07.273Z,29.70
2018-05-27T13:43:34.747Z,29.40
2018-05-27T13:46:02.194Z,29.20
2018-05-27T13:48:29.679Z,29.20
2018-05-27T13:50:57.133Z,29.20
2018-05-27T13:53:24.586Z,29.90
2018-05-27T13:55:52.968Z,30.30
2018-05-27T13:58:20.423Z,30.10
2018-05-27T14:00:47.893Z,29.90
2018-05-27T14:03:15.349Z,29.70
2018-05-27T14:05:42.817Z,29.10
2018-05-27T14:08:11.235Z,28.60
2018-05-27T14:10:38.695Z,28.80
2018-05-27T14:13:06.164Z,28.90
2018-05-27T14:15:33.696Z,28.40
2018-05-27T14:18:02.038Z,28.30
2018-05-27T14:20:30.281Z,28.10
2018-05-27T14:22:57.753Z,28.00
2018-05-27T14:25:25.202Z,28.10
2018-05-27T14:27:54.873Z,28.00
2018-05-27T14:30:22.333Z,27.90
2018-05-27T14:32:50.546Z,27.10
2018-05-27T14:35:18.192Z,27.10
2018-05-27T14:37:45.666Z,26.90
2018-05-27T14:40:13.147Z,26.90
2018-05-27T14:42:40.600Z,26.70
2018-05-27T14:45:08.061Z,26.60
2018-05-27T14:47:35.510Z,26.60
2018-05-27T14:50:02.975Z,26.60
2018-05-27T14:52:30.434Z,26.60
2018-05-27T14:54:57.905Z,26.40
2018-05-27T14:57:25.388Z,26.40
2018-05-27T14:59:52.862Z,26.40
2018-05-27T15:02:20.337Z,26.40
2018-05-27T15:04:47.796Z,26.40
2018-05-27T15:07:15.245Z,26.30
2018-05-27T15:09:42.696Z,26.20
2018-05-27T15:12:10.257Z,26.10
2018-05-27T15:14:37.627Z,26.10
2018-05-27T15:17:05.089Z,26.10
2018-05-27T15:19:32.548Z,26.10
2018-05-27T15:22:00.015Z,26.20
2018-05-27T15:24:27.471Z,26.20
2018-05-27T15:26:54.990Z,26.20
2018-05-27T15:29:23.192Z,26.60
2018-05-27T15:31:51.446Z,26.70
2018-05-27T15:34:19.664Z,26.60
2018-05-27T15:36:47.106Z,26.60
2018-05-27T15:39:14.576Z,26.80
2018-05-27T15:41:42.029Z,26.70
2018-05-27T15:44:09.508Z,26.80
2018-05-27T15:46:36.987Z,26.60
2018-05-27T15:49:04.457Z,26.60
2018-05-27T15:51:31.940Z,26.60
2018-05-27T15:53:59.390Z,26.70
2018-05-27T15:56:26.845Z,26.60
2018-05-27T15:58:54.326Z,26.60
2018-05-27T16:01:21.790Z,26.30
2018-05-27T16:03:49.286Z,26.30
2018-05-27T16:06:16.735Z,26.20
2018-05-27T16:08:44.981Z,26.30
2018-05-27T16:11:12.453Z,26.30
2018-05-27T16:13:39.922Z,26.20
2018-05-27T16:16:07.369Z,26.20
2018-05-27T16:18:34.829Z,26.20
2018-05-27T16:21:02.285Z,26.10
2018-05-27T16:23:29.745Z,26.20
2018-05-27T16:25:57.200Z,26.30
2018-05-27T16:28:24.672Z,26.40
2018-05-27T16:30:52.110Z,26.30
2018-05-27T16:33:19.562Z,26.50
2018-05-27T16:35:47.024Z,26.70
2018-05-27T16:38:14.470Z,26.50
2018-05-27T16:40:42.766Z,26.70
2018-05-27T16:43:10.182Z,26.70
2018-05-27T16:45:37.647Z,26.80
2018-05-27T16:48:05.109Z,26.70
2018-05-27T16:50:32.576Z,26.80
2018-05-27T16:53:00.045Z,26.80
2018-05-27T16:55:27.561Z,26.90
2018-05-27T16:57:55.040Z,26.90
2018-05-27T17:00:22.511Z,27.00
2018-05-27T17:02:49.936Z,27.10
2018-05-27T17:05:17.399Z,27.00
2018-05-27T17:07:44.871Z,26.90
2018-05-27T17:10:13.118Z,26.90
2018-05-27T17:12:41.346Z,27.00
2018-05-27T17:15:08.836Z,27.00
2018-05-27T17:17:36.292Z,27.00
2018-05-27T17:20:03.752Z,27.00
2018-05-27T17:22:31.198Z,26.90
2018-05-27T17:24:58.669Z,26.70
2018-05-27T17:27:26.198Z,26.70
2018-05-27T17:29:53.677Z,26.90
2018-05-27T17:32:21.911Z,27.00
2018-05-27T17:34:49.374Z,27.10
2018-05-27T17:37:17.620Z,26.90
2018-05-27T17:39:45.106Z,26.90
2018-05-27T17:42:12.556Z,26.90
2018-05-27T17:44:40.023Z,27.10
2018-05-27T17:47:07.555Z,27.10
2018-05-27T17:49:34.998Z,26.90
2018-05-27T17:52:02.461Z,26.80
2018-05-27T17:54:30.691Z,26.70
2018-05-27T17:56:58.154Z,26.70
2018-05-27T17:59:25.628Z,26.60
2018-05-27T18:01:53.850Z,26.30
2018-05-27T18:04:21.326Z,26.30
2018-05-27T18:06:48.774Z,26.50
2018-05-27T18:09:17.004Z,26.40
2018-05-27T18:11:44.481Z,26.40
2018-05-27T18:14:12.692Z,26.20
2018-05-27T18:16:40.159Z,26.20
2018-05-27T18:19:07.624Z,26.10
2018-05-27T18:21:35.102Z,26.00
2018-05-27T18:24:02.559Z,26.00
2018-05-27T18:26:30.011Z,26.00
2018-05-27T18:28:57.467Z,25.90
2018-05-27T18:31:25.034Z,25.90
2018-05-27T18:33:52.489Z,25.80
2018-05-27T18:36:19.974Z,25.80
2018-05-27T18:38:47.453Z,25.70
2018-05-27T18:41:14.911Z,25.60
2018-05-27T18:43:42.370Z,25.40
2018-05-27T18:46:09.837Z,25.40
2018-05-27T18:48:37.292Z,25.30
2018-05-27T18:51:06.678Z,25.50
2018-05-27T18:53:34.124Z,25.70
2018-05-27T18:56:01.582Z,25.70
2018-05-27T18:58:30.777Z,25.70
2018-05-27T19:00:59.032Z,25.50
2018-05-27T19:03:26.479Z,25.50
2018-05-27T19:05:53.941Z,25.30
2018-05-27T19:08:22.373Z,25.00
2018-05-27T19:10:49.863Z,24.70
2018-05-27T19:13:17.337Z,24.60
2018-05-27T19:15:44.807Z,24.60
2018-05-27T19:18:12.254Z,24.60
2018-05-27T19:20:39.709Z,24.50
2018-05-27T19:23:07.167Z,24.50
2018-05-27T19:25:34.624Z,24.50
2018-05-27T19:28:02.070Z,24.40
2018-05-27T19:30:29.553Z,24.30
2018-05-27T19:32:57.013Z,24.10
2018-05-27T19:35:24.551Z,24.00
2018-05-27T19:37:52.781Z,23.90
2018-05-27T19:40:20.254Z,23.90
2018-05-27T19:42:47.726Z,23.80
2018-05-27T19:45:15.195Z,23.70
2018-05-27T19:47:42.676Z,23.70
2018-05-27T19:50:10.937Z,23.80
2018-05-27T19:52:38.446Z,23.80
2018-05-27T19:55:05.920Z,23.70
2018-05-27T19:57:33.381Z,23.60
2018-05-27T20:00:00.810Z,23.50
2018-05-27T20:02:29.049Z,23.40
2018-05-27T20:04:56.508Z,23.40
2018-05-27T20:07:24.022Z,23.30
2018-05-27T20:09:52.302Z,23.10
2018-05-27T20:12:19.724Z,23.10
2018-05-27T20:14:47.205Z,23.30
2018-05-27T20:17:14.656Z,23.40
2018-05-27T20:19:42.125Z,23.30
2018-05-27T20:22:09.589Z,23.30
2018-05-27T20:24:37.051Z,23.40
2018-05-27T20:27:04.531Z,23.30
2018-05-27T20:29:32.759Z,23.20
2018-05-27T20:32:00.231Z,23.10
2018-05-27T20:34:27.708Z,22.90
2018-05-27T20:36:55.165Z,22.90
2018-05-27T20:42:13.753Z,23.20
2018-05-27T20:44:41.200Z,23.10
2018-05-27T20:47:08.653Z,23.00
2018-05-27T20:49:36.140Z,23.00
2018-05-27T20:52:03.598Z,23.10
2018-05-27T20:54:31.079Z,23.10
2018-05-27T20:56:58.608Z,23.20
2018-05-27T20:59:26.081Z,23.30
2018-05-27T21:01:53.535Z,23.10
2018-05-27T21:04:20.980Z,23.00
2018-05-27T21:06:48.432Z,22.90
2018-05-27T21:09:15.891Z,22.90
2018-05-27T21:11:44.110Z,22.80
2018-05-27T21:14:11.597Z,22.80
2018-05-27T21:16:39.812Z,22.90
2018-05-27T21:19:07.303Z,22.90
2018-05-27T21:21:35.519Z,22.70
2018-05-27T21:24:03.743Z,22.70
2018-05-27T21:26:31.197Z,22.60
2018-05-27T21:28:58.649Z,22.70
2018-05-27T21:31:26.109Z,22.60
2018-05-27T21:33:53.576Z,22.70
2018-05-27T21:36:21.044Z,22.70
2018-05-27T21:38:48.526Z,22.60
2018-05-27T21:41:15.996Z,22.50
2018-05-27T21:43:43.471Z,22.40
2018-05-27T21:46:10.936Z,22.50
2018-05-27T21:48:38.355Z,22.50
2018-05-27T21:51:05.823Z,22.40
2018-05-27T21:53:33.287Z,22.30
2018-05-27T21:56:00.815Z,22.40
2018-05-27T21:58:29.076Z,22.40
2018-05-27T22:00:56.576Z,22.40
2018-05-27T22:03:24.791Z,22.30
2018-05-27T22:05:52.265Z,22.30
2018-05-27T22:08:19.777Z,22.20
2018-05-27T22:10:48.009Z,22.00
2018-05-27T22:13:15.469Z,22.00
2018-05-27T22:15:42.959Z,21.90
2018-05-27T22:18:11.198Z,21.90
2018-05-27T22:20:38.652Z,21.80
2018-05-27T22:23:06.118Z,21.70
2018-05-27T22:25:33.580Z,21.70
2018-05-27T22:28:01.048Z,21.70
2018-05-27T22:30:28.535Z,21.70
2018-05-27T22:32:56.000Z,21.50
2018-05-27T22:35:23.474Z,21.40
2018-05-27T22:37:50.931Z,21.40
2018-05-27T22:40:18.398Z,21.30
2018-05-27T22:42:45.873Z,21.50
2018-05-27T22:45:14.279Z,21.70
2018-05-27T22:47:41.735Z,21.70
2018-05-27T22:50:09.212Z,21.40
2018-05-27T22:52:37.451Z,21.20
2018-05-27T22:55:05.689Z,21.10
2018-05-27T22:57:33.149Z,21.10
2018-05-27T23:00:00.595Z,21.00
2018-05-27T23:02:28.065Z,20.90
2018-05-27T23:04:55.528Z,21.00
2018-05-27T23:07:23.012Z,21.00
2018-05-27T23:09:50.433Z,21.00
2018-05-27T23:12:17.880Z,21.00
2018-05-27T23:14:45.324Z,21.20
2018-05-27T23:17:12.802Z,21.40
2018-05-27T23:19:40.245Z,21.30
2018-05-27T23:22:07.691Z,21.30
2018-05-27T23:24:35.162Z,21.30
2018-05-27T23:27:02.624Z,21.40
2018-05-27T23:29:30.074Z,21.40
2018-05-27T23:31:57.535Z,21.40
2018-05-27T23:34:24.988Z,21.40
2018-05-27T23:36:52.514Z,21.20
2018-05-27T23:39:19.917Z,20.90
2018-05-27T23:41:47.388Z,20.70
2018-05-27T23:44:14.842Z,20.60
2018-05-27T23:46:42.284Z,20.70
2018-05-27T23:49:09.742Z,20.70
2018-05-27T23:51:37.197Z,20.50
2018-05-27T23:54:04.661Z,20.40
2018-05-27T23:56:32.105Z,20.40
2018-05-27T23:58:59.560Z,20.40
